Time;durP1;ratioP1;P1;durP2;ratioP2;P2;SDS_P1;SDS_P2;PMS_P1;PMS_P2;Temp;Humidity;BMP_temperature;BMP_pressure;BME280_temperature;BME280_humidity;BME280_pressure;Samples;Min_cycle;Max_cycle;Signal;HPM_P1;HPM_P2
2023/04/06 00:00:37;;;;;;;;;;;0.60;99.90;;;;;;5003542;28;19928;-67
2023/04/06 00:03:06;;;;;;;;;;;0.60;99.90;;;;;;5003975;28;19966;-67
2023/04/06 00:05:32;;;;;;;;;;;0.60;99.90;;;;;;5003929;28;19989;-67
2023/04/06 00:07:59;;;;;;;;;;;0.50;99.90;;;;;;5003441;28;19925;-67
2023/04/06 00:10:26;;;;;;;;;;;0.50;99.90;;;;;;5002979;28;19922;-67
2023/04/06 00:12:52;;;;;;;;;;;0.50;99.90;;;;;;5003905;28;20205;-67
2023/04/06 00:15:19;;;;;;;;;;;0.50;99.90;;;;;;5003819;28;19968;-67
2023/04/06 00:17:46;;;;;;;;;;;0.50;99.90;;;;;;5003696;28;20197;-67
2023/04/06 00:20:14;;;;;;;;;;;0.40;99.90;;;;;;5003680;28;19929;-67
2023/04/06 00:22:41;;;;;;;;;;;0.40;99.90;;;;;;5003821;28;20116;-67
2023/04/06 00:25:08;;;;;;;;;;;0.30;99.90;;;;;;5003145;28;19985;-67
2023/04/06 00:27:35;;;;;;;;;;;0.30;99.90;;;;;;5003482;28;19921;-67
2023/04/06 00:30:01;;;;;;;;;;;0.20;99.90;;;;;;5003869;28;19922;-68
2023/04/06 00:32:28;;;;;;;;;;;0.20;99.90;;;;;;5003718;28;19928;-67
2023/04/06 00:34:55;;;;;;;;;;;0.20;99.90;;;;;;5003772;28;19922;-66
2023/04/06 00:37:23;;;;;;;;;;;0.20;99.90;;;;;;5003452;28;20221;-67
2023/04/06 00:39:51;;;;;;;;;;;0.10;99.90;;;;;;5003748;28;19977;-67
2023/04/06 00:42:24;;;;;;;;;;;0.10;99.90;;;;;;5003299;28;19921;-67
2023/04/06 00:44:51;;;;;;;;;;;0.10;99.90;;;;;;5003799;28;19922;-67
2023/04/06 00:47:18;;;;;;;;;;;0.00;99.90;;;;;;5002738;28;19922;-67
2023/04/06 00:49:45;;;;;;;;;;;0.00;99.90;;;;;;5003629;28;19922;-67
2023/04/06 00:52:11;;;;;;;;;;;0.00;99.90;;;;;;5003470;28;20197;-66
2023/04/06 00:54:39;;;;;;;;;;;-0.10;99.90;;;;;;5003609;28;19945;-67
2023/04/06 00:57:06;;;;;;;;;;;-0.10;99.90;;;;;;5003429;28;19929;-67
2023/04/06 00:59:33;;;;;;;;;;;-0.10;99.90;;;;;;5003680;28;19921;-67
2023/04/06 01:02:00;;;;;;;;;;;-0.10;99.90;;;;;;5003340;28;19965;-67
2023/04/06 01:04:27;;;;;;;;;;;-0.10;99.90;;;;;;5003452;28;19928;-67
2023/04/06 01:06:54;;;;;;;;;;;-0.20;99.90;;;;;;5003055;28;20209;-67
2023/04/06 01:09:21;;;;;;;;;;;-0.10;99.90;;;;;;5003483;28;19922;-67
2023/04/06 01:11:49;;;;;;;;;;;-0.20;99.90;;;;;;5003034;28;19922;-67
2023/04/06 01:14:16;;;;;;;;;;;-0.20;99.90;;;;;;5003539;28;19994;-67
2023/04/06 01:16:42;;;;;;;;;;;-0.20;99.90;;;;;;5003123;28;20225;-66
2023/04/06 01:19:10;;;;;;;;;;;-0.20;99.90;;;;;;5006082;28;20005;-67
2023/04/06 01:21:36;;;;;;;;;;;-0.20;99.90;;;;;;5024327;28;19968;-67
2023/04/06 01:24:05;;;;;;;;;;;-0.30;99.90;;;;;;5025336;28;20320;-67
2023/04/06 01:26:32;;;;;;;;;;;-0.30;99.90;;;;;;5026247;28;19989;-67
2023/04/06 01:28:59;;;;;;;;;;;-0.30;99.90;;;;;;5008657;28;19945;-67
2023/04/06 01:31:26;;;;;;;;;;;-0.30;99.90;;;;;;5006755;28;19964;-67
2023/04/06 01:33:53;;;;;;;;;;;-0.30;99.90;;;;;;5006608;28;19928;-67
2023/04/06 01:36:19;;;;;;;;;;;-0.30;99.90;;;;;;5006038;28;19929;-67
2023/04/06 01:38:46;;;;;;;;;;;-0.30;99.90;;;;;;5006488;28;19965;-67
2023/04/06 01:41:14;;;;;;;;;;;-0.30;99.90;;;;;;5006531;28;19922;-67
2023/04/06 01:43:41;;;;;;;;;;;-0.30;99.90;;;;;;5006388;28;19922;-67
2023/04/06 01:46:07;;;;;;;;;;;-0.40;99.90;;;;;;5006138;28;19945;-66
2023/04/06 01:48:36;;;;;;;;;;;-0.40;99.90;;;;;;5005382;28;20213;-66
2023/04/06 01:51:03;;;;;;;;;;;-0.50;99.90;;;;;;5006414;28;20121;-67
2023/04/06 01:53:30;;;;;;;;;;;-0.50;99.90;;;;;;5006244;28;19929;-67
2023/04/06 01:55:57;;;;;;;;;;;-0.50;99.90;;;;;;5005887;28;19922;-66
2023/04/06 01:58:25;;;;;;;;;;;-0.50;99.90;;;;;;5005845;28;19921;-67
2023/04/06 02:00:52;;;;;;;;;;;-0.60;99.90;;;;;;5005935;28;19928;-67
2023/04/06 02:03:18;;;;;;;;;;;-0.60;99.90;;;;;;5006281;28;19922;-66
2023/04/06 02:05:45;;;;;;;;;;;-0.60;99.90;;;;;;5005901;28;19921;-68
2023/04/06 02:08:12;;;;;;;;;;;-0.60;99.90;;;;;;5005648;28;19922;-67
2023/04/06 02:10:38;;;;;;;;;;;-0.60;99.90;;;;;;5005758;28;19926;-68
2023/04/06 02:13:05;;;;;;;;;;;-0.60;99.90;;;;;;5005585;28;19929;-67
2023/04/06 02:15:33;;;;;;;;;;;-0.60;99.90;;;;;;5005404;28;19945;-67
2023/04/06 02:18:00;;;;;;;;;;;-0.60;99.90;;;;;;5005342;28;19921;-67
2023/04/06 02:20:27;;;;;;;;;;;-0.70;99.90;;;;;;5005791;28;20232;-67
2023/04/06 02:22:54;;;;;;;;;;;-0.70;99.90;;;;;;5004971;28;19921;-67
2023/04/06 02:25:21;;;;;;;;;;;-0.70;99.90;;;;;;5005541;28;19921;-67
2023/04/06 02:27:48;;;;;;;;;;;-0.70;99.90;;;;;;5004868;28;19929;-67
2023/04/06 02:30:14;;;;;;;;;;;-0.70;99.90;;;;;;5005155;28;19922;-67
2023/04/06 02:32:43;;;;;;;;;;;-0.80;99.90;;;;;;5005001;28;19922;-67
2023/04/06 02:35:09;;;;;;;;;;;-0.80;99.90;;;;;;5004052;28;19929;-68
2023/04/06 02:37:36;;;;;;;;;;;-0.80;99.90;;;;;;5005213;28;19968;-67
2023/04/06 02:40:03;;;;;;;;;;;-0.80;99.90;;;;;;5005613;28;19922;-67
2023/04/06 02:42:30;;;;;;;;;;;-0.80;99.90;;;;;;5004692;28;19972;-67
2023/04/06 02:44:56;;;;;;;;;;;-0.80;99.90;;;;;;5005383;28;19953;-67
2023/04/06 02:47:23;;;;;;;;;;;-0.90;99.90;;;;;;5004770;28;19929;-67
2023/04/06 02:49:51;;;;;;;;;;;-0.90;99.90;;;;;;5005263;28;19921;-70
2023/04/06 02:52:18;;;;;;;;;;;-0.90;99.90;;;;;;5004803;28;19921;-67
2023/04/06 02:54:45;;;;;;;;;;;-0.90;99.90;;;;;;5005279;28;20120;-67
2023/04/06 02:57:12;;;;;;;;;;;-0.90;99.90;;;;;;5004790;28;19980;-67
2023/04/06 02:59:38;;;;;;;;;;;-0.90;99.90;;;;;;5004786;28;19922;-67
2023/04/06 03:02:05;;;;;;;;;;;-1.00;99.90;;;;;;5004993;28;20121;-67
2023/04/06 03:04:32;;;;;;;;;;;-1.00;99.90;;;;;;5005008;28;19929;-67
2023/04/06 03:07:00;;;;;;;;;;;-1.10;99.90;;;;;;5004507;28;19921;-67
2023/04/06 03:09:27;;;;;;;;;;;-1.10;99.90;;;;;;5004698;28;19922;-67
2023/04/06 03:11:53;;;;;;;;;;;-1.10;99.90;;;;;;5004655;28;19928;-67
2023/04/06 03:14:21;;;;;;;;;;;-1.10;99.90;;;;;;5004987;28;19922;-67
2023/04/06 03:16:48;;;;;;;;;;;-1.20;99.90;;;;;;5004613;28;19961;-67
2023/04/06 03:19:15;;;;;;;;;;;-1.20;99.90;;;;;;5004564;28;19928;-67
2023/04/06 03:21:42;;;;;;;;;;;-1.10;99.90;;;;;;5004341;28;19929;-67
2023/04/06 03:24:10;;;;;;;;;;;-1.20;99.90;;;;;;5004893;28;19960;-67
2023/04/06 03:26:37;;;;;;;;;;;-1.20;99.90;;;;;;5004339;28;19922;-67
2023/04/06 03:29:03;;;;;;;;;;;-1.20;99.90;;;;;;5004670;28;19926;-67
2023/04/06 03:31:30;;;;;;;;;;;-1.20;99.90;;;;;;5004227;28;19922;-67
2023/04/06 03:33:57;;;;;;;;;;;-1.30;99.90;;;;;;5004181;28;21739;-66
2023/04/06 03:36:23;;;;;;;;;;;-1.30;99.90;;;;;;5004196;28;19922;-67
2023/04/06 03:38:50;;;;;;;;;;;-1.30;99.90;;;;;;5004562;28;19929;-67
2023/04/06 03:41:19;;;;;;;;;;;-1.30;99.90;;;;;;5003952;28;19922;-67
2023/04/06 03:43:46;;;;;;;;;;;-1.40;99.90;;;;;;5003810;28;19976;-67
2023/04/06 03:46:12;;;;;;;;;;;-1.40;99.90;;;;;;5003119;28;19921;-67
2023/04/06 03:48:39;;;;;;;;;;;-1.40;99.90;;;;;;5004329;28;19922;-67
2023/04/06 03:51:06;;;;;;;;;;;-1.50;99.90;;;;;;5004252;28;19929;-67
2023/04/06 03:53:32;;;;;;;;;;;-1.40;99.90;;;;;;5003837;28;20091;-67
2023/04/06 03:55:59;;;;;;;;;;;-1.40;99.90;;;;;;5001750;28;19934;-67
2023/04/06 03:58:27;;;;;;;;;;;-1.50;99.90;;;;;;5003809;28;19929;-67
2023/04/06 04:00:54;;;;;;;;;;;-1.50;99.90;;;;;;5003701;28;19921;-67
2023/04/06 04:03:23;;;;;;;;;;;-1.50;99.90;;;;;;4992374;28;20095;-67
2023/04/06 04:05:49;;;;;;;;;;;-1.50;99.90;;;;;;4984578;28;19937;-67
2023/04/06 04:08:16;;;;;;;;;;;-1.50;99.90;;;;;;4984260;28;19922;-67
2023/04/06 04:10:43;;;;;;;;;;;-1.50;99.90;;;;;;4984633;28;19929;-67
2023/04/06 04:13:09;;;;;;;;;;;-1.60;99.90;;;;;;4984249;28;19922;-67
2023/04/06 04:15:38;;;;;;;;;;;-1.60;99.90;;;;;;4984409;28;19922;-67
2023/04/06 04:18:04;;;;;;;;;;;-1.60;99.90;;;;;;4984414;28;20117;-67
2023/04/06 04:20:31;;;;;;;;;;;-1.60;99.90;;;;;;4984179;28;19922;-67
2023/04/06 04:22:58;;;;;;;;;;;-1.60;99.90;;;;;;4984175;28;20209;-68
2023/04/06 04:25:24;;;;;;;;;;;-1.60;99.90;;;;;;4984483;28;19929;-67
2023/04/06 04:27:51;;;;;;;;;;;-1.60;99.90;;;;;;4984288;28;19929;-67
2023/04/06 04:30:18;;;;;;;;;;;-1.60;99.90;;;;;;4983974;28;19956;-67
2023/04/06 04:32:46;;;;;;;;;;;-1.60;99.90;;;;;;4984108;28;20129;-67
2023/04/06 04:35:13;;;;;;;;;;;-1.70;99.90;;;;;;4983973;28;19922;-66
2023/04/06 04:37:40;;;;;;;;;;;-1.60;99.90;;;;;;4984138;28;19931;-67
2023/04/06 04:40:07;;;;;;;;;;;-1.70;99.90;;;;;;4984215;28;19922;-67
2023/04/06 04:42:34;;;;;;;;;;;-1.70;99.90;;;;;;4983821;28;19922;-66
2023/04/06 04:45:01;;;;;;;;;;;-1.70;99.90;;;;;;4984243;28;20116;-65
2023/04/06 04:47:27;;;;;;;;;;;-1.80;99.90;;;;;;4983747;28;19922;-66
2023/04/06 04:49:55;;;;;;;;;;;-1.80;99.90;;;;;;4983858;28;19922;-66
2023/04/06 04:52:24;;;;;;;;;;;-1.90;99.90;;;;;;4984191;28;19922;-67
2023/04/06 04:54:51;;;;;;;;;;;-1.90;99.90;;;;;;4983692;28;19922;-66
2023/04/06 04:57:18;;;;;;;;;;;-1.90;99.90;;;;;;4985742;28;19922;-66
2023/04/06 04:59:44;;;;;;;;;;;-1.90;99.90;;;;;;4987716;28;20133;-66
2023/04/06 05:02:11;;;;;;;;;;;-1.90;99.90;;;;;;5005320;28;19922;-66
2023/04/06 05:04:38;;;;;;;;;;;-1.90;99.90;;;;;;5007232;28;19921;-66
2023/04/06 05:07:07;;;;;;;;;;;-1.90;99.90;;;;;;5006696;28;19921;-66
2023/04/06 05:09:33;;;;;;;;;;;-1.90;99.90;;;;;;5006882;28;19922;-66
2023/04/06 05:12:00;;;;;;;;;;;-1.90;99.90;;;;;;5006787;28;19925;-66
2023/04/06 05:14:27;;;;;;;;;;;-1.80;99.90;;;;;;5007015;28;20181;-66
2023/04/06 05:16:54;;;;;;;;;;;-1.80;99.90;;;;;;5005607;28;19980;-66
2023/04/06 05:19:21;;;;;;;;;;;-1.80;99.90;;;;;;5006750;28;19922;-68
2023/04/06 05:21:48;;;;;;;;;;;-1.90;99.90;;;;;;5006649;28;20162;-67
2023/04/06 05:24:16;;;;;;;;;;;-1.80;99.90;;;;;;5007010;28;20094;-67
2023/04/06 05:26:42;;;;;;;;;;;-1.80;99.90;;;;;;5006538;28;19980;-67
2023/04/06 05:29:09;;;;;;;;;;;-1.70;99.90;;;;;;5005554;28;19929;-67
2023/04/06 05:31:36;;;;;;;;;;;-1.70;99.90;;;;;;5005450;28;19922;-67
2023/04/06 05:34:03;;;;;;;;;;;-1.70;99.90;;;;;;5006284;28;19926;-65
2023/04/06 05:36:30;;;;;;;;;;;-1.70;99.90;;;;;;5006155;28;20094;-69
2023/04/06 05:38:56;;;;;;;;;;;-1.70;99.90;;;;;;5006365;28;19922;-67
2023/04/06 05:41:26;;;;;;;;;;;-1.60;99.90;;;;;;5005948;28;19921;-67
2023/04/06 05:43:52;;;;;;;;;;;-1.60;99.90;;;;;;5006255;28;19925;-67
2023/04/06 05:46:19;;;;;;;;;;;-1.60;99.90;;;;;;5006126;28;19922;-67
2023/04/06 05:48:46;;;;;;;;;;;-1.50;99.90;;;;;;5006370;28;19984;-67
2023/04/06 05:51:12;;;;;;;;;;;-1.50;99.90;;;;;;5006625;28;19922;-66
2023/04/06 05:53:39;;;;;;;;;;;-1.40;99.90;;;;;;5006292;28;19921;-67
2023/04/06 05:56:06;;;;;;;;;;;-1.40;99.90;;;;;;5005175;28;19922;-66
2023/04/06 05:58:34;;;;;;;;;;;-1.30;99.90;;;;;;5004880;28;19922;-67
2023/04/06 06:01:02;;;;;;;;;;;-1.30;99.90;;;;;;5005563;28;19922;-66
2023/04/06 06:03:29;;;;;;;;;;;-1.20;99.90;;;;;;5005661;28;19921;-67
2023/04/06 06:06:00;;;;;;;;;;;-1.20;99.90;;;;;;5005574;28;19968;-67
2023/04/06 06:08:27;;;;;;;;;;;-1.10;99.90;;;;;;5004864;28;19968;-67
2023/04/06 06:10:53;;;;;;;;;;;-1.20;99.90;;;;;;5005664;28;19976;-66
2023/04/06 06:13:20;;;;;;;;;;;-1.10;99.90;;;;;;5005843;28;20204;-67
2023/04/06 06:15:48;;;;;;;;;;;-1.10;99.90;;;;;;5005930;28;19960;-67
2023/04/06 06:18:15;;;;;;;;;;;-1.00;99.90;;;;;;5005179;28;20231;-66
2023/04/06 06:20:42;;;;;;;;;;;-1.00;99.90;;;;;;5005530;28;19922;-67
2023/04/06 06:23:08;;;;;;;;;;;-0.90;99.90;;;;;;5002710;28;19922;-66
2023/04/06 06:25:35;;;;;;;;;;;-0.80;99.90;;;;;;4985976;28;19968;-67
2023/04/06 06:28:02;;;;;;;;;;;-0.70;99.90;;;;;;4986833;28;19922;-66
2023/04/06 06:30:28;;;;;;;;;;;-0.70;99.90;;;;;;5005313;28;19968;-66
2023/04/06 06:32:56;;;;;;;;;;;-0.60;99.90;;;;;;5005460;28;19994;-67
2023/04/06 06:35:23;;;;;;;;;;;-0.50;99.90;;;;;;5005192;28;19929;-65
2023/04/06 06:37:50;;;;;;;;;;;-0.40;99.90;;;;;;5005067;28;19961;-66
2023/04/06 06:40:17;;;;;;;;;;;-0.30;99.90;;;;;;5005116;28;19929;-67
2023/04/06 06:42:44;;;;;;;;;;;-0.20;99.90;;;;;;5006370;28;19968;-66
2023/04/06 06:45:11;;;;;;;;;;;-0.10;99.90;;;;;;5004750;28;19929;-69
2023/04/06 06:47:38;;;;;;;;;;;-0.10;99.90;;;;;;5005131;28;20091;-67
2023/04/06 06:50:07;;;;;;;;;;;0.00;99.90;;;;;;5004929;28;19922;-66
2023/04/06 06:52:34;;;;;;;;;;;0.10;99.90;;;;;;4998946;28;19972;-67
2023/04/06 06:55:00;;;;;;;;;;;0.20;99.90;;;;;;5004483;28;19929;-67
2023/04/06 06:57:27;;;;;;;;;;;0.30;99.90;;;;;;5003681;28;19930;-67
2023/04/06 06:59:54;;;;;;;;;;;0.40;99.90;;;;;;5004681;28;20117;-67
2023/04/06 07:02:21;;;;;;;;;;;0.50;99.90;;;;;;5004656;28;20174;-67
2023/04/06 07:04:48;;;;;;;;;;;0.70;99.90;;;;;;5004834;28;19922;-67
2023/04/06 07:07:16;;;;;;;;;;;0.80;99.90;;;;;;5004923;28;19929;-66
2023/04/06 07:09:43;;;;;;;;;;;0.90;99.90;;;;;;5004208;28;19945;-67
2023/04/06 07:12:09;;;;;;;;;;;1.00;99.90;;;;;;4990974;28;19930;-66
2023/04/06 07:14:37;;;;;;;;;;;1.20;99.90;;;;;;4993495;28;19965;-67
2023/04/06 07:17:03;;;;;;;;;;;1.30;99.90;;;;;;5004199;28;20239;-66
2023/04/06 07:19:30;;;;;;;;;;;1.40;99.90;;;;;;5004136;28;19952;-67
2023/04/06 07:21:57;;;;;;;;;;;1.50;99.90;;;;;;5004265;28;19928;-67
2023/04/06 07:24:26;;;;;;;;;;;1.60;99.90;;;;;;5004133;28;20113;-67
2023/04/06 07:26:52;;;;;;;;;;;1.70;99.90;;;;;;5004172;28;19922;-68
2023/04/06 07:29:19;;;;;;;;;;;1.70;99.90;;;;;;5004400;28;19929;-67
2023/04/06 07:31:46;;;;;;;;;;;1.80;99.90;;;;;;5003598;28;19940;-67
2023/04/06 07:34:13;;;;;;;;;;;1.90;99.90;;;;;;5003574;28;19921;-67
2023/04/06 07:36:39;;;;;;;;;;;2.10;99.90;;;;;;5003726;28;20337;-67
2023/04/06 07:39:06;;;;;;;;;;;2.20;99.90;;;;;;5003731;28;19922;-67
2023/04/06 07:41:34;;;;;;;;;;;2.40;99.90;;;;;;5003797;28;19928;-66
2023/04/06 07:44:01;;;;;;;;;;;2.50;99.90;;;;;;5004066;28;20248;-67
2023/04/06 07:46:28;;;;;;;;;;;2.70;99.90;;;;;;5003639;28;19922;-67
2023/04/06 07:48:54;;;;;;;;;;;2.90;99.90;;;;;;5003992;28;20010;-67
2023/04/06 07:51:21;;;;;;;;;;;3.10;99.90;;;;;;5003391;28;19921;-67
2023/04/06 07:53:48;;;;;;;;;;;3.20;99.90;;;;;;5003683;28;19944;-67
2023/04/06 07:56:15;;;;;;;;;;;3.40;99.90;;;;;;5003853;28;20017;-67
2023/04/06 07:58:43;;;;;;;;;;;3.70;99.90;;;;;;5003948;28;20174;-67
2023/04/06 08:01:10;;;;;;;;;;;3.80;99.90;;;;;;5003769;28;20239;-67
2023/04/06 08:03:37;;;;;;;;;;;4.10;99.90;;;;;;5003099;28;19961;-67
2023/04/06 08:06:04;;;;;;;;;;;4.20;99.90;;;;;;5004000;28;19988;-68
2023/04/06 08:08:30;;;;;;;;;;;4.30;99.90;;;;;;5003514;28;19929;-68
2023/04/06 08:10:57;;;;;;;;;;;4.40;99.90;;;;;;5004012;28;19922;-67
2023/04/06 08:13:24;;;;;;;;;;;4.50;99.90;;;;;;5002114;28;19936;-67
2023/04/06 08:15:53;;;;;;;;;;;4.60;99.90;;;;;;5003449;28;19980;-67
2023/04/06 08:18:20;;;;;;;;;;;4.70;99.90;;;;;;5003530;28;19928;-67
2023/04/06 08:20:46;;;;;;;;;;;4.70;99.90;;;;;;5003317;28;20217;-67
2023/04/06 08:23:13;;;;;;;;;;;4.80;99.90;;;;;;5003732;28;19922;-67
2023/04/06 08:25:40;;;;;;;;;;;4.90;99.90;;;;;;5003637;28;19922;-66
2023/04/06 08:28:06;;;;;;;;;;;5.00;99.90;;;;;;5001362;28;19922;-68
2023/04/06 08:30:33;;;;;;;;;;;5.10;99.90;;;;;;5003599;28;19922;-67
2023/04/06 08:33:01;;;;;;;;;;;5.20;99.90;;;;;;5007533;28;19929;-67
2023/04/06 08:35:28;;;;;;;;;;;5.30;99.90;;;;;;5007251;28;19929;-66
2023/04/06 08:37:56;;;;;;;;;;;5.40;99.90;;;;;;5006668;28;19921;-67
2023/04/06 08:40:22;;;;;;;;;;;5.50;99.90;;;;;;5007839;28;20109;-67
2023/04/06 08:42:51;;;;;;;;;;;5.60;99.90;;;;;;5007443;28;19922;-67
2023/04/06 08:45:20;;;;;;;;;;;5.60;99.90;;;;;;5007279;28;19922;-67
2023/04/06 08:47:48;;;;;;;;;;;5.70;99.90;;;;;;5006954;28;19922;-67
2023/04/06 08:50:17;;;;;;;;;;;5.80;99.90;;;;;;5019261;28;19968;-67
2023/04/06 08:52:44;;;;;;;;;;;5.90;99.90;;;;;;5027161;28;20068;-67
2023/04/06 08:55:11;;;;;;;;;;;5.90;99.90;;;;;;5027017;28;19921;-67
2023/04/06 08:57:38;;;;;;;;;;;6.00;99.90;;;;;;5026625;28;19921;-67
2023/04/06 09:00:05;;;;;;;;;;;6.10;99.90;;;;;;5026745;28;20236;-67
2023/04/06 09:02:32;;;;;;;;;;;6.20;99.90;;;;;;5026563;28;19922;-67
2023/04/06 09:04:59;;;;;;;;;;;6.30;99.90;;;;;;5026642;28;19921;-67
2023/04/06 09:07:29;;;;;;;;;;;6.30;99.90;;;;;;5026751;28;19921;-67
2023/04/06 09:09:55;;;;;;;;;;;6.40;99.90;;;;;;5026626;28;19925;-67
2023/04/06 09:12:23;;;;;;;;;;;6.50;99.90;;;;;;5026844;28;20161;-67
2023/04/06 09:14:49;;;;;;;;;;;6.50;99.90;;;;;;5026426;28;20228;-67
2023/04/06 09:17:20;;;;;;;;;;;6.60;99.90;;;;;;5026518;28;20117;-66
2023/04/06 09:19:47;;;;;;;;;;;6.70;99.90;;;;;;5026816;28;19921;-66
2023/04/06 09:22:14;;;;;;;;;;;6.80;99.90;;;;;;5018502;28;19929;-66
2023/04/06 09:24:43;;;;;;;;;;;6.90;99.90;;;;;;5006483;28;20249;-64
2023/04/06 09:27:10;;;;;;;;;;;7.00;99.90;;;;;;5006631;28;20229;-64
2023/04/06 09:29:36;;;;;;;;;;;7.10;99.90;;;;;;5006817;28;19926;-64
2023/04/06 09:32:04;;;;;;;;;;;7.10;99.90;;;;;;5006697;28;20164;-65
2023/04/06 09:34:31;;;;;;;;;;;7.10;99.90;;;;;;5006464;28;19921;-65
2023/04/06 09:36:58;;;;;;;;;;;7.10;99.90;;;;;;5001474;28;19994;-64
2023/04/06 09:39:25;;;;;;;;;;;7.20;99.90;;;;;;5003214;28;19922;-65
2023/04/06 09:41:54;;;;;;;;;;;7.30;99.90;;;;;;5004594;28;20237;-65
2023/04/06 09:44:20;;;;;;;;;;;7.30;99.90;;;;;;5006036;28;19929;-64
2023/04/06 09:46:48;;;;;;;;;;;7.30;99.90;;;;;;5006183;28;19922;-64
2023/04/06 09:49:16;;;;;;;;;;;7.40;99.90;;;;;;5005844;28;20206;-64
2023/04/06 09:51:45;;;;;;;;;;;7.50;99.90;;;;;;5006510;28;20264;-64
2023/04/06 09:54:12;;;;;;;;;;;7.50;99.90;;;;;;5006271;28;19952;-65
2023/04/06 09:56:44;;;;;;;;;;;7.60;99.90;;;;;;5005928;28;19922;-65
2023/04/06 09:59:14;;;;;;;;;;;7.70;99.90;;;;;;5006014;28;19945;-64
2023/04/06 10:01:41;;;;;;;;;;;7.80;99.90;;;;;;5006265;28;19956;-64
2023/04/06 10:04:14;;;;;;;;;;;7.90;99.90;;;;;;5005887;28;19952;-65
2023/04/06 10:06:40;;;;;;;;;;;8.10;99.90;;;;;;5004106;28;19926;-65
2023/04/06 10:09:09;;;;;;;;;;;8.20;99.90;;;;;;5005484;28;19921;-68
2023/04/06 10:11:35;;;;;;;;;;;8.30;99.90;;;;;;5005814;28;20121;-68
2023/04/06 10:14:02;;;;;;;;;;;8.30;99.90;;;;;;5005875;28;19925;-68
2023/04/06 10:16:31;;;;;;;;;;;8.50;99.90;;;;;;5005689;28;19922;-68
2023/04/06 10:19:01;;;;;;;;;;;8.60;99.90;;;;;;5004902;28;20283;-68
2023/04/06 10:21:28;;;;;;;;;;;8.80;99.90;;;;;;5005663;28;19922;-67
2023/04/06 10:23:58;;;;;;;;;;;9.00;99.90;;;;;;5005447;28;20229;-68
2023/04/06 10:26:25;;;;;;;;;;;9.10;99.90;;;;;;5005403;28;19945;-70
2023/04/06 10:28:52;;;;;;;;;;;9.30;99.90;;;;;;5005699;28;19961;-68
2023/04/06 10:31:25;;;;;;;;;;;9.30;99.90;;;;;;5005373;28;19922;-68
2023/04/06 10:33:56;;;;;;;;;;;9.40;99.90;;;;;;5005679;28;19929;-68
2023/04/06 10:36:23;;;;;;;;;;;9.50;99.90;;;;;;5005147;28;19921;-67
2023/04/06 10:38:54;;;;;;;;;;;9.70;99.90;;;;;;5004481;28;19922;-68
2023/04/06 10:41:21;;;;;;;;;;;9.80;99.90;;;;;;5005436;28;19922;-67
2023/04/06 10:43:56;;;;;;;;;;;9.80;99.20;;;;;;5005047;28;19922;-68
2023/04/06 10:46:25;;;;;;;;;;;9.90;99.90;;;;;;4985778;28;19922;-68
2023/04/06 10:48:52;;;;;;;;;;;10.10;99.30;;;;;;4985530;28;19922;-69
2023/04/06 10:51:26;;;;;;;;;;;10.20;98.40;;;;;;4985931;28;19930;-68
2023/04/06 10:53:53;;;;;;;;;;;10.30;98.10;;;;;;4985347;28;19922;-68
2023/04/06 10:56:22;;;;;;;;;;;10.40;98.40;;;;;;4985217;28;19937;-68
2023/04/06 10:58:50;;;;;;;;;;;10.40;97.20;;;;;;4985676;28;19929;-68
2023/04/06 11:01:17;;;;;;;;;;;10.40;96.70;;;;;;4985775;28;19922;-68
2023/04/06 11:03:45;;;;;;;;;;;10.50;96.00;;;;;;4985534;28;19922;-68
2023/04/06 11:06:11;;;;;;;;;;;10.60;95.30;;;;;;4985125;28;19945;-68
2023/04/06 11:08:40;;;;;;;;;;;10.70;95.50;;;;;;4985624;28;19922;-67
2023/04/06 11:11:07;;;;;;;;;;;10.60;94.60;;;;;;4985548;28;19942;-68
2023/04/06 11:13:37;;;;;;;;;;;10.60;94.70;;;;;;4986563;28;19926;-68
2023/04/06 11:16:05;;;;;;;;;;;10.50;95.10;;;;;;5004437;28;19921;-67
2023/04/06 11:18:32;;;;;;;;;;;10.10;94.70;;;;;;5004803;28;19922;-68
2023/04/06 11:20:59;;;;;;;;;;;9.90;95.20;;;;;;5004456;28;19921;-70
2023/04/06 11:23:26;;;;;;;;;;;9.80;95.60;;;;;;5004289;28;20205;-68
2023/04/06 11:25:55;;;;;;;;;;;9.70;95.90;;;;;;5004527;28;19989;-68
2023/04/06 11:28:21;;;;;;;;;;;9.70;95.50;;;;;;5004403;28;19921;-67
2023/04/06 11:30:48;;;;;;;;;;;9.60;96.10;;;;;;5004673;28;19922;-67
2023/04/06 11:33:20;;;;;;;;;;;9.60;95.80;;;;;;5004293;28;20205;-67
2023/04/06 11:35:47;;;;;;;;;;;9.60;95.50;;;;;;5004382;28;19944;-68
2023/04/06 11:38:14;;;;;;;;;;;9.80;96.30;;;;;;5004323;28;20117;-68
2023/04/06 11:40:42;;;;;;;;;;;9.90;95.90;;;;;;5003772;28;19929;-67
2023/04/06 11:43:13;;;;;;;;;;;10.00;94.70;;;;;;5004358;28;19921;-68
2023/04/06 11:45:43;;;;;;;;;;;10.10;95.20;;;;;;5004026;28;20205;-69
2023/04/06 11:48:18;;;;;;;;;;;10.10;94.20;;;;;;5003969;28;20201;-70
2023/04/06 11:50:47;;;;;;;;;;;10.30;94.60;;;;;;5003271;28;19921;-68
2023/04/06 11:53:14;;;;;;;;;;;10.70;94.40;;;;;;5004318;28;19964;-68
2023/04/06 11:55:40;;;;;;;;;;;11.00;93.90;;;;;;5004107;28;20121;-68
2023/04/06 11:58:07;;;;;;;;;;;11.20;94.70;;;;;;5004122;28;19926;-68
2023/04/06 12:00:36;;;;;;;;;;;11.10;92.90;;;;;;5003889;28;19921;-68
2023/04/06 12:03:03;;;;;;;;;;;11.00;92.20;;;;;;5003830;28;20259;-67
2023/04/06 12:05:30;;;;;;;;;;;10.90;91.80;;;;;;5003111;28;19922;-69
2023/04/06 12:07:57;;;;;;;;;;;10.80;92.00;;;;;;5002542;28;19921;-68
2023/04/06 12:10:24;;;;;;;;;;;10.70;92.60;;;;;;5002618;28;19929;-68
2023/04/06 12:12:50;;;;;;;;;;;10.70;92.30;;;;;;5003050;28;19922;-68
2023/04/06 12:15:17;;;;;;;;;;;10.90;93.40;;;;;;5003689;28;19921;-68
2023/04/06 12:17:45;;;;;;;;;;;11.10;92.30;;;;;;5003620;28;19921;-68
2023/04/06 12:20:13;;;;;;;;;;;11.20;92.40;;;;;;5004110;28;19929;-68
2023/04/06 12:22:39;;;;;;;;;;;11.10;91.90;;;;;;5003919;28;19922;-69
2023/04/06 12:25:07;;;;;;;;;;;10.80;91.70;;;;;;5002460;28;19928;-68
2023/04/06 12:27:34;;;;;;;;;;;10.70;91.90;;;;;;5003249;28;20213;-68
2023/04/06 12:30:01;;;;;;;;;;;10.70;91.50;;;;;;5003828;28;19922;-67
2023/04/06 12:32:28;;;;;;;;;;;10.90;92.30;;;;;;5003789;28;19928;-68
2023/04/06 12:34:56;;;;;;;;;;;11.10;91.40;;;;;;5003268;28;20206;-68
2023/04/06 12:37:23;;;;;;;;;;;11.50;90.70;;;;;;5003029;28;19929;-68
2023/04/06 12:39:50;;;;;;;;;;;11.80;90.40;;;;;;5003597;28;19925;-68
2023/04/06 12:42:17;;;;;;;;;;;12.20;91.50;;;;;;5003344;28;20214;-68
2023/04/06 12:44:44;;;;;;;;;;;12.60;90.20;;;;;;5003753;28;19921;-67
2023/04/06 12:47:11;;;;;;;;;;;12.90;89.50;;;;;;5003335;28;19921;-66
2023/04/06 12:49:38;;;;;;;;;;;13.20;87.50;;;;;;5002891;28;19922;-66
2023/04/06 12:52:06;;;;;;;;;;;13.40;84.90;;;;;;5003411;28;20123;-66
2023/04/06 12:54:33;;;;;;;;;;;13.70;90.10;;;;;;5003418;28;19922;-66
2023/04/06 12:57:00;;;;;;;;;;;14.10;86.10;;;;;;5003348;28;19925;-66
2023/04/06 12:59:30;;;;;;;;;;;14.40;83.40;;;;;;5003426;28;19926;-66
2023/04/06 13:01:57;;;;;;;;;;;14.60;81.80;;;;;;5003148;28;19981;-66
2023/04/06 13:04:24;;;;;;;;;;;14.90;82.80;;;;;;5003161;28;19921;-66
2023/04/06 13:06:50;;;;;;;;;;;14.90;80.60;;;;;;5003250;28;20166;-66
2023/04/06 13:09:19;;;;;;;;;;;15.00;82.70;;;;;;5003076;28;19921;-66
2023/04/06 13:11:45;;;;;;;;;;;15.10;79.10;;;;;;5003207;28;19921;-66
2023/04/06 13:14:12;;;;;;;;;;;15.10;78.50;;;;;;5003573;28;19922;-66
2023/04/06 13:16:39;;;;;;;;;;;14.90;77.00;;;;;;5003245;28;19922;-66
2023/04/06 13:19:06;;;;;;;;;;;15.00;77.50;;;;;;5006940;28;19944;-65
2023/04/06 13:21:33;;;;;;;;;;;14.60;75.40;;;;;;5006561;28;19922;-65
2023/04/06 13:24:00;;;;;;;;;;;14.40;74.00;;;;;;5006771;28;19922;-66
2023/04/06 13:26:28;;;;;;;;;;;14.30;72.80;;;;;;5006609;28;20058;-66
2023/04/06 13:28:56;;;;;;;;;;;14.50;74.70;;;;;;5006838;28;19930;-65
2023/04/06 13:31:23;;;;;;;;;;;14.30;73.10;;;;;;5006509;28;19928;-66
2023/04/06 13:33:49;;;;;;;;;;;14.30;75.40;;;;;;5006468;28;19922;-65
2023/04/06 13:36:16;;;;;;;;;;;14.40;73.00;;;;;;5006164;28;19922;-66
2023/04/06 13:38:43;;;;;;;;;;;14.40;72.20;;;;;;5006331;28;19922;-68
2023/04/06 13:41:10;;;;;;;;;;;14.50;72.50;;;;;;5006655;28;19929;-67
2023/04/06 13:43:38;;;;;;;;;;;14.60;74.00;;;;;;5006188;28;19938;-67
2023/04/06 13:46:05;;;;;;;;;;;15.00;75.80;;;;;;5005281;28;20460;-67
2023/04/06 13:48:31;;;;;;;;;;;15.30;76.00;;;;;;5005214;28;19953;-67
2023/04/06 13:50:58;;;;;;;;;;;15.30;72.40;;;;;;5005414;28;19980;-67
2023/04/06 13:53:26;;;;;;;;;;;15.30;72.90;;;;;;5002169;28;19929;-67
2023/04/06 13:55:53;;;;;;;;;;;15.20;71.90;;;;;;5003540;28;20005;-67
2023/04/06 13:58:19;;;;;;;;;;;15.40;72.50;;;;;;4994726;28;20128;-67
2023/04/06 14:00:47;;;;;;;;;;;15.70;72.80;;;;;;5002992;28;19922;-66
2023/04/06 14:03:14;;;;;;;;;;;16.10;71.90;;;;;;5002999;28;20012;-66
2023/04/06 14:05:41;;;;;;;;;;;16.20;72.70;;;;;;5004918;28;19989;-66
2023/04/06 14:08:07;;;;;;;;;;;16.40;73.40;;;;;;5003533;28;20154;-66
2023/04/06 14:10:37;;;;;;;;;;;16.50;71.30;;;;;;5005328;28;19932;-67
2023/04/06 14:13:04;;;;;;;;;;;16.70;74.00;;;;;;5005105;28;19972;-67
2023/04/06 14:15:32;;;;;;;;;;;16.90;70.10;;;;;;5003725;28;20403;-67
2023/04/06 14:18:00;;;;;;;;;;;17.20;70.70;;;;;;5004630;28;20189;-68
2023/04/06 14:20:27;;;;;;;;;;;17.20;66.90;;;;;;5005051;28;19988;-67